Hamilton Park, Indiana
Current Conditions -  °F | °C
As of 8:53 AM on Monday 20 Oct 2014 (Local Time) from KMIE Reporting Station
Broken Clouds Broken Clouds  
Wind Chill: 51°   Ceiling: 8500
Heat Index: 51°   Visibility: 10mi
Dew Point: 44°   Wind: 10mph
Humidity: 77%   Direction: 200°SSW
Pressure: 29.91"   Gusts: NA
Location:  40.2763°N, 85.3769°W
Report Text: KMIE 201253Z 20009KT 10SM BKN085 11/07 A2991 RMK AO2 SLP125 T01060067
Loading
Personal Weather Stations






























Interactive Weather Map
Tropical Storm Tracking
New forecast layout! Learn more

10-Day Weather Forecast

Advertisements
Track Severe Weather on mobile